Time;durP1;ratioP1;P1;durP2;ratioP2;P2;SDS_P1;SDS_P2;PMS_P1;PMS_P2;Temp;Humidity;BMP_temperature;BMP_pressure;BME280_temperature;BME280_humidity;BME280_pressure;Samples;Min_cycle;Max_cycle;Signal;HPM_P1;HPM_P2
2021/09/15 00:01:45;;;;;;;54.35;38.78;;;18.60;99.90;;;;;;5022482;28;40199;-79
2021/09/15 00:04:11;;;;;;;48.67;36.10;;;18.60;99.90;;;;;;5019282;28;41525;-79
2021/09/15 00:06:37;;;;;;;35.55;29.75;;;18.60;99.90;;;;;;5039747;28;39601;-79
2021/09/15 00:09:03;;;;;;;42.70;33.58;;;18.60;99.90;;;;;;5036983;28;38271;-78
2021/09/15 00:11:30;;;;;;;39.00;31.80;;;18.60;99.90;;;;;;5035946;28;39116;-79
2021/09/15 00:13:56;;;;;;;33.75;29.70;;;18.60;99.90;;;;;;5025941;28;39356;-78
2021/09/15 00:16:22;;;;;;;38.13;31.65;;;18.60;99.90;;;;;;5039102;28;39549;-78
2021/09/15 00:18:48;;;;;;;53.45;38.60;;;18.50;99.90;;;;;;5020648;28;38983;-78
2021/09/15 00:21:14;;;;;;;48.67;35.65;;;18.50;99.90;;;;;;5040555;28;38019;-79
2021/09/15 00:23:40;;;;;;;53.17;39.10;;;18.50;99.90;;;;;;5040770;28;38124;-79
2021/09/15 00:26:06;;;;;;;39.63;33.67;;;18.50;99.90;;;;;;5039823;28;39541;-79
2021/09/15 00:28:32;;;;;;;84.32;50.42;;;18.40;99.90;;;;;;5024517;28;39348;-78
2021/09/15 00:30:58;;;;;;;58.90;42.17;;;18.40;99.90;;;;;;5039072;28;38248;-79
2021/09/15 00:33:24;;;;;;;56.88;42.25;;;18.40;99.90;;;;;;5043874;28;37084;-79
2021/09/15 00:35:51;;;;;;;48.92;39.45;;;18.30;99.90;;;;;;5035474;28;39654;-79
2021/09/15 00:38:17;;;;;;;49.78;39.80;;;18.30;99.90;;;;;;5018603;28;37856;-79
2021/09/15 00:40:43;;;;;;;49.20;39.55;;;18.30;99.90;;;;;;5041809;28;38905;-79
2021/09/15 00:43:09;;;;;;;70.72;50.83;;;18.20;99.90;;;;;;5042066;28;38236;-80
2021/09/15 00:45:35;;;;;;;98.85;60.72;;;18.20;99.90;;;;;;5018478;28;39632;-79
2021/09/15 00:48:01;;;;;;;58.65;44.33;;;18.20;99.90;;;;;;5042432;28;37976;-79
2021/09/15 00:50:27;;;;;;;64.00;46.10;;;18.10;99.90;;;;;;5050151;28;39626;-79
2021/09/15 00:52:53;;;;;;;58.13;44.55;;;18.10;99.90;;;;;;5027741;28;38205;-78
2021/09/15 00:55:20;;;;;;;67.43;49.05;;;18.10;99.90;;;;;;5044513;28;38602;-78
2021/09/15 00:57:46;;;;;;;90.60;55.47;;;18.10;99.90;;;;;;5035584;28;38619;-79
2021/09/15 01:00:12;;;;;;;89.78;59.88;;;18.00;99.90;;;;;;5024738;28;38766;-78
2021/09/15 01:02:38;;;;;;;89.40;60.53;;;18.00;99.90;;;;;;5039871;28;37585;-79
2021/09/15 01:05:05;;;;;;;85.53;55.42;;;18.10;99.90;;;;;;5041077;28;39362;-77
2021/09/15 01:07:33;;;;;;;98.35;61.25;;;18.10;99.90;;;;;;5041174;28;39747;-78
2021/09/15 01:10:00;;;;;;;92.80;60.38;;;18.10;99.90;;;;;;5022255;28;38495;-78
2021/09/15 01:12:27;;;;;;;59.53;46.85;;;18.10;99.90;;;;;;5035594;28;39269;-79
2021/09/15 01:14:53;;;;;;;78.82;55.88;;;18.10;99.90;;;;;;5024866;28;37729;-79
2021/09/15 01:17:19;;;;;;;72.55;52.25;;;18.00;99.90;;;;;;5020491;28;38622;-77
2021/09/15 01:19:45;;;;;;;102.07;62.95;;;18.00;99.90;;;;;;5038721;28;38962;-79
2021/09/15 01:22:11;;;;;;;112.10;63.90;;;18.00;99.90;;;;;;5028457;28;38608;-79
2021/09/15 01:24:38;;;;;;;74.10;54.70;;;18.00;99.90;;;;;;5018609;28;38280;-78
2021/09/15 01:27:04;;;;;;;78.75;54.72;;;17.90;99.90;;;;;;5019638;28;39344;-78
2021/09/15 01:29:33;;;;;;;61.13;46.50;;;17.90;99.90;;;;;;5022974;28;40200;-78
2021/09/15 01:32:08;;;;;;;78.65;53.22;;;17.80;99.90;;;;;;5022031;28;38526;-79
2021/09/15 01:34:44;;;;;;;71.53;51.22;;;17.80;99.90;;;;;;5022898;28;47480;-79
2021/09/15 01:37:13;;;;;;;89.65;57.72;;;17.80;99.90;;;;;;5022595;28;38531;-78
2021/09/15 01:39:39;;;;;;;72.07;50.55;;;17.80;99.90;;;;;;5023058;28;38146;-79
2021/09/15 01:42:07;;;;;;;73.68;53.40;;;17.80;99.90;;;;;;5023582;28;37480;-78
2021/09/15 01:44:38;;;;;;;65.90;49.03;;;17.70;99.90;;;;;;5015774;28;37454;-78
2021/09/15 01:47:06;;;;;;;62.00;46.10;;;17.70;99.90;;;;;;5014794;28;39724;-78
2021/09/15 01:49:34;;;;;;;60.30;47.08;;;17.60;99.90;;;;;;5023980;28;38680;-79
2021/09/15 01:52:01;;;;;;;69.30;50.28;;;17.60;99.90;;;;;;5020531;28;36388;-78
2021/09/15 01:54:29;;;;;;;68.43;49.03;;;17.60;99.90;;;;;;5020651;28;45800;-78
2021/09/15 01:56:56;;;;;;;57.25;44.75;;;17.60;99.90;;;;;;5022722;28;38708;-78
2021/09/15 01:59:22;;;;;;;68.97;50.28;;;17.50;99.90;;;;;;5020487;28;37961;-79
2021/09/15 02:01:48;;;;;;;73.18;50.03;;;17.50;99.90;;;;;;5018699;28;38206;-79
2021/09/15 02:04:14;;;;;;;86.47;55.05;;;17.50;99.90;;;;;;5021336;28;40009;-78
2021/09/15 02:06:40;;;;;;;84.32;54.65;;;17.50;99.90;;;;;;5016619;28;38836;-78
2021/09/15 02:09:07;;;;;;;66.75;47.35;;;17.50;99.90;;;;;;5021156;28;39126;-79
2021/09/15 02:11:35;;;;;;;73.60;49.15;;;17.50;99.90;;;;;;5019285;28;38030;-78
2021/09/15 02:14:01;;;;;;;54.92;42.17;;;17.50;99.90;;;;;;5022857;28;38779;-78
2021/09/15 02:16:28;;;;;;;56.72;43.38;;;17.50;99.90;;;;;;5021005;28;38888;-78
2021/09/15 02:18:54;;;;;;;72.00;49.67;;;17.50;99.90;;;;;;5022790;28;38094;-78
2021/09/15 02:21:20;;;;;;;71.18;50.85;;;17.40;99.90;;;;;;5009653;28;38227;-78
2021/09/15 02:23:47;;;;;;;82.95;54.55;;;17.50;99.90;;;;;;5021976;28;37475;-79
2021/09/15 02:26:14;;;;;;;64.90;46.28;;;17.40;99.90;;;;;;5015728;28;37757;-79
2021/09/15 02:28:41;;;;;;;66.45;46.65;;;17.40;99.90;;;;;;5014141;28;40036;-78
2021/09/15 02:31:07;;;;;;;65.38;49.08;;;17.40;99.90;;;;;;5021835;28;37565;-79
2021/09/15 02:33:33;;;;;;;61.75;44.50;;;17.50;99.90;;;;;;5020596;28;39248;-78
2021/09/15 02:36:00;;;;;;;69.60;49.13;;;17.40;99.90;;;;;;5014960;28;38744;-79
2021/09/15 02:38:26;;;;;;;73.25;51.65;;;17.40;99.90;;;;;;5034975;28;38797;-78
2021/09/15 02:40:52;;;;;;;69.85;48.22;;;17.40;99.90;;;;;;5018489;28;39452;-78
2021/09/15 02:43:18;;;;;;;62.17;46.38;;;17.40;99.90;;;;;;5031548;28;39285;-79
2021/09/15 02:45:44;;;;;;;68.18;47.63;;;17.40;99.90;;;;;;5021267;28;37924;-78
2021/09/15 02:48:10;;;;;;;52.80;41.97;;;17.30;99.90;;;;;;5011263;28;38055;-79
2021/09/15 02:50:37;;;;;;;66.68;46.88;;;17.30;99.90;;;;;;5021071;28;36154;-79
2021/09/15 02:53:03;;;;;;;65.10;46.65;;;17.20;99.90;;;;;;5019431;28;38720;-78
2021/09/15 02:55:29;;;;;;;62.05;47.63;;;17.20;99.90;;;;;;5021633;28;39177;-79
2021/09/15 02:57:55;;;;;;;70.28;48.55;;;17.20;99.90;;;;;;5015939;28;37478;-79
2021/09/15 03:00:21;;;;;;;64.60;47.00;;;17.20;99.90;;;;;;5035351;28;36584;-78
2021/09/15 03:02:47;;;;;;;50.80;39.33;;;17.30;99.90;;;;;;5016421;28;39339;-79
2021/09/15 03:05:13;;;;;;;54.72;43.15;;;17.20;99.90;;;;;;5017373;28;38028;-79
2021/09/15 03:07:40;;;;;;;65.68;46.72;;;17.10;99.90;;;;;;5019352;28;36986;-79
2021/09/15 03:10:08;;;;;;;72.95;51.88;;;17.20;99.90;;;;;;5016532;28;40030;-79
2021/09/15 03:12:34;;;;;;;79.18;54.03;;;17.20;99.90;;;;;;5015659;28;39688;-78
2021/09/15 03:15:01;;;;;;;61.40;45.92;;;17.20;99.90;;;;;;5011475;28;36812;-78
2021/09/15 03:17:27;;;;;;;75.75;52.42;;;17.20;99.90;;;;;;5015792;28;39615;-79
2021/09/15 03:19:53;;;;;;;137.90;72.07;;;17.20;99.90;;;;;;5018906;28;38610;-80
2021/09/15 03:22:19;;;;;;;82.45;57.85;;;17.30;99.90;;;;;;5012843;28;38241;-80
2021/09/15 03:24:45;;;;;;;81.90;57.22;;;17.40;99.90;;;;;;5020923;28;38913;-81
2021/09/15 03:27:11;;;;;;;77.85;54.40;;;17.50;99.90;;;;;;5015386;28;38243;-80
2021/09/15 03:29:37;;;;;;;90.93;60.97;;;17.60;99.90;;;;;;5011031;28;41812;-78
2021/09/15 03:32:03;;;;;;;129.50;73.90;;;17.60;99.90;;;;;;5016266;28;38822;-80
2021/09/15 03:34:29;;;;;;;142.88;75.00;;;17.70;99.90;;;;;;5017098;28;38640;-78
2021/09/15 03:36:55;;;;;;;86.85;59.40;;;17.70;99.90;;;;;;5011639;28;39573;-81
2021/09/15 03:39:22;;;;;;;118.43;69.47;;;17.60;99.90;;;;;;5020055;28;35473;-80
2021/09/15 03:41:48;;;;;;;78.60;56.20;;;17.50;99.90;;;;;;5018503;28;40929;-80
2021/09/15 03:44:15;;;;;;;132.73;71.50;;;17.50;99.90;;;;;;5018662;28;38255;-80
2021/09/15 03:46:41;;;;;;;96.65;62.22;;;17.50;99.90;;;;;;5007664;28;40656;-80
2021/09/15 03:49:07;;;;;;;89.30;57.67;;;17.40;99.90;;;;;;5022045;28;37586;-80
2021/09/15 03:51:33;;;;;;;99.95;60.03;;;17.30;99.90;;;;;;5019252;28;38646;-80
2021/09/15 03:53:59;;;;;;;115.18;65.18;;;17.30;99.90;;;;;;5036204;28;39367;-80
2021/09/15 03:56:26;;;;;;;111.13;64.03;;;17.30;99.90;;;;;;5018858;28;38975;-80
2021/09/15 03:58:52;;;;;;;87.50;57.55;;;17.30;99.90;;;;;;5018643;28;37980;-80
2021/09/15 04:01:18;;;;;;;95.78;60.25;;;17.30;99.90;;;;;;5020220;28;40764;-80
2021/09/15 04:03:44;;;;;;;94.85;59.25;;;17.20;99.90;;;;;;5037720;28;37659;-79
2021/09/15 04:06:10;;;;;;;137.38;74.85;;;17.20;99.90;;;;;;5021881;28;39252;-79
2021/09/15 04:08:36;;;;;;;80.25;57.08;;;17.20;99.90;;;;;;5022369;28;37159;-80
2021/09/15 04:11:02;;;;;;;105.63;61.58;;;17.30;99.90;;;;;;5019716;28;39351;-79
2021/09/15 04:13:28;;;;;;;116.90;69.70;;;17.30;99.90;;;;;;5021969;28;39826;-79
2021/09/15 04:15:55;;;;;;;131.75;73.65;;;17.30;99.90;;;;;;5015240;28;39788;-80
2021/09/15 04:18:21;;;;;;;69.32;51.40;;;17.20;99.90;;;;;;5042531;28;36496;-80
2021/09/15 04:20:47;;;;;;;128.00;70.07;;;17.20;99.90;;;;;;5038084;28;39541;-79
2021/09/15 04:23:20;;;;;;;92.75;59.35;;;17.20;99.90;;;;;;5042985;28;37759;-79
2021/09/15 04:31:22;;;;;;;93.63;62.17;;;17.20;99.90;;;;;;5038015;28;40364;-80
2021/09/15 04:33:49;;;;;;;113.82;67.05;;;17.20;99.90;;;;;;5024045;28;39214;-79
2021/09/15 04:36:15;;;;;;;90.57;58.88;;;17.20;99.90;;;;;;5040818;28;37953;-80
2021/09/15 04:38:42;;;;;;;85.68;58.08;;;17.20;99.90;;;;;;5021780;28;37612;-80
2021/09/15 04:41:08;;;;;;;108.07;66.68;;;17.30;99.90;;;;;;5023621;28;40297;-79
2021/09/15 04:43:34;;;;;;;118.15;67.82;;;17.20;99.90;;;;;;5037290;28;38548;-80
2021/09/15 04:46:00;;;;;;;80.70;55.53;;;17.30;99.90;;;;;;5039092;28;38434;-79
2021/09/15 04:48:26;;;;;;;84.85;58.28;;;17.20;99.90;;;;;;5022783;28;47287;-80
2021/09/15 04:50:52;;;;;;;114.15;65.40;;;17.20;99.90;;;;;;5044606;28;38861;-80
2021/09/15 04:53:19;;;;;;;152.00;74.10;;;17.20;99.90;;;;;;5028090;28;39021;-80
2021/09/15 04:55:46;;;;;;;99.22;63.20;;;17.20;99.90;;;;;;5036904;28;36704;-81
2021/09/15 04:58:12;;;;;;;120.68;69.20;;;17.20;99.90;;;;;;5036609;28;35577;-81
2021/09/15 05:00:38;;;;;;;144.68;71.70;;;17.20;99.90;;;;;;5018649;28;38870;-80
2021/09/15 05:03:05;;;;;;;120.05;68.75;;;17.30;99.90;;;;;;5031986;28;39019;-80
2021/09/15 05:05:31;;;;;;;108.13;66.00;;;17.40;99.90;;;;;;5034994;28;37971;-80
2021/09/15 05:07:57;;;;;;;148.05;76.07;;;17.30;99.90;;;;;;5039973;28;37349;-80
2021/09/15 05:10:26;;;;;;;110.53;64.57;;;17.40;99.90;;;;;;5034139;28;39897;-80
2021/09/15 05:12:53;;;;;;;117.40;64.93;;;17.40;99.90;;;;;;5022968;28;38414;-80
2021/09/15 05:15:20;;;;;;;201.73;82.30;;;17.40;99.90;;;;;;5020055;28;38506;-79
2021/09/15 05:17:46;;;;;;;137.45;70.22;;;17.50;99.90;;;;;;5026203;28;39009;-79
2021/09/15 05:20:16;;;;;;;160.10;76.53;;;17.50;99.90;;;;;;5024751;28;39786;-79
2021/09/15 05:22:50;;;;;;;157.52;78.85;;;17.50;99.90;;;;;;5022077;28;39611;-80
2021/09/15 05:25:17;;;;;;;128.65;70.18;;;17.50;99.90;;;;;;5043234;28;38641;-80
2021/09/15 05:27:43;;;;;;;128.95;72.20;;;17.50;99.90;;;;;;5035680;28;36946;-79
2021/09/15 05:30:11;;;;;;;159.65;77.07;;;17.50;99.90;;;;;;5031428;28;39102;-78
2021/09/15 05:32:38;;;;;;;168.75;80.05;;;17.50;99.90;;;;;;5001942;28;38861;-79
2021/09/15 05:35:06;;;;;;;172.90;78.05;;;17.50;99.90;;;;;;5041927;28;38443;-78
2021/09/15 05:37:32;;;;;;;126.25;71.57;;;17.50;99.90;;;;;;5038007;28;38148;-79
2021/09/15 05:39:59;;;;;;;139.50;73.75;;;17.50;99.90;;;;;;5033958;28;41135;-79
2021/09/15 05:42:26;;;;;;;155.18;75.38;;;17.50;99.90;;;;;;5020764;28;39203;-79
2021/09/15 05:44:52;;;;;;;99.78;61.70;;;17.50;99.90;;;;;;5037016;28;38201;-80
2021/09/15 05:47:19;;;;;;;113.20;64.20;;;17.50;99.90;;;;;;5034625;28;37781;-80
2021/09/15 05:49:45;;;;;;;148.43;69.20;;;17.60;99.90;;;;;;5033828;28;38995;-80
2021/09/15 05:52:11;;;;;;;100.65;59.05;;;17.60;99.90;;;;;;5018686;28;42083;-81
2021/09/15 05:54:37;;;;;;;115.50;64.10;;;17.60;99.90;;;;;;5040070;28;38389;-80
2021/09/15 05:57:03;;;;;;;115.47;65.00;;;17.70;99.90;;;;;;5036028;28;37256;-80
2021/09/15 05:59:30;;;;;;;109.60;61.92;;;17.70;99.90;;;;;;5038757;28;40617;-80
2021/09/15 06:01:56;;;;;;;149.85;70.47;;;17.70;99.90;;;;;;5021840;28;37914;-80
2021/09/15 06:04:22;;;;;;;126.07;65.68;;;17.70;99.90;;;;;;5041939;28;39981;-80
2021/09/15 06:06:48;;;;;;;162.23;75.95;;;17.70;99.90;;;;;;5025291;28;37156;-80
2021/09/15 06:09:14;;;;;;;161.45;74.03;;;17.80;99.90;;;;;;5037347;28;38899;-81
2021/09/15 06:11:40;;;;;;;118.32;63.60;;;17.80;99.90;;;;;;5029635;28;38492;-80
2021/09/15 06:14:06;;;;;;;95.13;56.25;;;17.90;99.90;;;;;;5039113;28;38113;-80
2021/09/15 06:16:32;;;;;;;88.82;55.78;;;18.00;99.90;;;;;;5038364;28;37361;-81
2021/09/15 06:18:58;;;;;;;86.85;50.58;;;18.00;99.90;;;;;;5023452;28;39250;-81
2021/09/15 06:21:25;;;;;;;83.18;53.83;;;17.90;99.90;;;;;;5032663;28;38536;-81
2021/09/15 06:23:53;;;;;;;70.63;49.97;;;18.00;99.90;;;;;;5023216;28;38828;-81
2021/09/15 06:26:25;;;;;;;97.43;57.15;;;17.90;99.90;;;;;;5042589;28;37262;-80
2021/09/15 06:28:54;;;;;;;102.40;57.58;;;18.00;99.90;;;;;;5025562;28;37752;-81
2021/09/15 06:31:24;;;;;;;78.85;50.38;;;18.00;99.90;;;;;;5040095;28;38983;-81
2021/09/15 06:33:52;;;;;;;80.00;51.42;;;18.00;99.90;;;;;;5023856;28;38977;-80
2021/09/15 06:36:19;;;;;;;73.70;46.75;;;18.00;99.90;;;;;;5042748;28;38472;-81
2021/09/15 06:38:46;;;;;;;84.97;48.38;;;18.00;99.90;;;;;;5022000;28;39569;-81
2021/09/15 06:41:12;;;;;;;93.53;53.63;;;18.10;99.90;;;;;;5030135;28;38547;-80
2021/09/15 06:43:38;;;;;;;54.25;38.85;;;18.20;99.90;;;;;;5042382;28;38989;-80
2021/09/15 06:46:04;;;;;;;64.93;43.10;;;18.20;99.90;;;;;;5041399;28;37407;-80
2021/09/15 06:48:31;;;;;;;59.85;39.67;;;18.30;99.90;;;;;;5022236;28;40328;-81
2021/09/15 06:50:57;;;;;;;74.00;45.28;;;18.50;99.90;;;;;;5043261;28;39086;-80
2021/09/15 06:53:23;;;;;;;51.85;36.28;;;18.60;99.90;;;;;;5023128;28;38569;-80
2021/09/15 06:55:49;;;;;;;35.47;28.95;;;18.70;99.90;;;;;;5045595;28;37277;-80
2021/09/15 06:58:15;;;;;;;40.35;29.55;;;18.70;99.90;;;;;;5040361;28;38950;-80
2021/09/15 07:00:41;;;;;;;38.33;28.35;;;18.80;99.90;;;;;;5036739;28;39204;-80
2021/09/15 07:03:07;;;;;;;33.25;24.30;;;18.80;99.90;;;;;;5044447;28;38021;-80
2021/09/15 07:05:36;;;;;;;33.60;23.50;;;18.80;99.90;;;;;;5025868;28;38236;-80
2021/09/15 07:08:04;;;;;;;28.52;23.02;;;18.80;99.90;;;;;;5043205;28;39502;-80
2021/09/15 07:10:33;;;;;;;27.75;21.73;;;18.90;99.90;;;;;;5044438;28;47681;-80
2021/09/15 07:12:59;;;;;;;28.40;19.55;;;19.00;99.90;;;;;;5037392;28;37979;-80
2021/09/15 07:15:25;;;;;;;21.27;14.90;;;19.10;99.90;;;;;;5043126;28;37424;-80
2021/09/15 07:17:53;;;;;;;18.58;14.52;;;19.10;99.90;;;;;;5036742;28;39728;-80
2021/09/15 07:20:20;;;;;;;22.45;16.38;;;19.20;99.90;;;;;;5043793;28;38490;-79
2021/09/15 07:22:46;;;;;;;18.67;15.90;;;19.10;99.90;;;;;;5027875;28;38318;-80
2021/09/15 07:25:13;;;;;;;17.13;14.45;;;19.20;99.90;;;;;;5022790;28;37624;-80
2021/09/15 07:27:40;;;;;;;19.52;14.85;;;19.30;99.90;;;;;;5027194;28;37820;-80
2021/09/15 07:30:07;;;;;;;16.30;13.95;;;19.30;99.90;;;;;;5043706;28;39129;-80
2021/09/15 07:32:33;;;;;;;14.50;13.00;;;19.40;99.90;;;;;;5046043;28;48755;-80
2021/09/15 07:34:59;;;;;;;14.57;11.82;;;19.40;99.90;;;;;;5024909;28;38178;-80
2021/09/15 07:37:25;;;;;;;11.25;10.13;;;19.40;99.90;;;;;;5039809;28;38660;-80
2021/09/15 07:39:53;;;;;;;10.50;8.38;;;19.40;99.90;;;;;;5032026;28;39500;-80
2021/09/15 07:42:19;;;;;;;7.55;6.78;;;19.40;99.90;;;;;;5032902;28;38911;-80
2021/09/15 07:44:45;;;;;;;10.18;7.15;;;19.30;99.90;;;;;;5041570;28;36828;-81
2021/09/15 07:47:15;;;;;;;10.45;7.70;;;19.30;99.90;;;;;;5023901;28;39444;-81
2021/09/15 07:49:45;;;;;;;7.60;6.75;;;19.30;99.90;;;;;;5043522;28;38472;-80
2021/09/15 07:52:12;;;;;;;6.93;6.10;;;19.30;99.90;;;;;;5026207;28;38852;-80
2021/09/15 07:54:38;;;;;;;13.52;5.97;;;19.40;99.90;;;;;;5024514;28;39286;-80
2021/09/15 07:57:04;;;;;;;8.70;5.85;;;19.40;99.90;;;;;;5042052;28;39803;-81
2021/09/15 07:59:31;;;;;;;9.32;5.30;;;19.30;99.90;;;;;;5036647;28;38927;-80
2021/09/15 08:01:57;;;;;;;8.15;5.63;;;19.30;99.90;;;;;;5041724;28;39060;-78
2021/09/15 08:04:23;;;;;;;5.40;3.83;;;19.30;99.90;;;;;;5022741;28;39102;-80
2021/09/15 08:06:50;;;;;;;6.90;4.50;;;19.20;99.90;;;;;;5038991;28;38985;-80
2021/09/15 08:09:16;;;;;;;8.30;4.65;;;19.30;99.90;;;;;;5043478;28;38552;-78
2021/09/15 08:11:42;;;;;;;4.03;3.17;;;19.40;99.90;;;;;;5021582;28;39011;-81
2021/09/15 08:14:08;;;;;;;4.85;3.22;;;19.40;99.90;;;;;;5027073;28;38281;-81
2021/09/15 08:16:34;;;;;;;5.30;2.90;;;19.40;99.90;;;;;;5045503;28;38796;-80
2021/09/15 08:19:02;;;;;;;5.60;3.55;;;19.40;99.90;;;;;;5035371;28;39974;-80
2021/09/15 08:21:29;;;;;;;4.15;3.38;;;19.50;99.90;;;;;;5021880;28;47306;-81
2021/09/15 08:23:55;;;;;;;7.85;3.50;;;19.50;99.90;;;;;;5044528;28;36065;-78
2021/09/15 08:26:21;;;;;;;6.57;3.25;;;19.50;99.90;;;;;;5043735;28;38624;-80
2021/09/15 08:28:47;;;;;;;5.35;2.90;;;19.30;99.90;;;;;;5044053;28;38384;-81
2021/09/15 08:31:14;;;;;;;7.55;2.45;;;19.20;99.90;;;;;;5043953;28;38453;-79
2021/09/15 08:33:40;;;;;;;5.10;2.42;;;19.30;99.90;;;;;;5042282;28;37352;-80
2021/09/15 08:36:06;;;;;;;3.28;1.80;;;19.30;99.90;;;;;;5019996;28;39300;-81
2021/09/15 08:38:32;;;;;;;4.93;2.42;;;19.30;99.90;;;;;;5029325;28;39074;-81
2021/09/15 08:40:58;;;;;;;5.00;1.85;;;19.30;99.90;;;;;;5029847;28;38403;-81
2021/09/15 08:43:24;;;;;;;4.28;1.90;;;19.30;99.90;;;;;;5041137;28;37372;-81
2021/09/15 08:45:51;;;;;;;11.05;2.33;;;19.30;99.90;;;;;;5035857;28;39554;-81
2021/09/15 08:48:18;;;;;;;5.13;2.20;;;19.40;99.90;;;;;;5044723;28;38508;-80
2021/09/15 08:50:51;;;;;;;5.82;1.83;;;19.40;99.90;;;;;;5044777;28;38261;-81
2021/09/15 08:53:18;;;;;;;2.33;1.45;;;19.40;99.90;;;;;;5041423;28;37464;-81
2021/09/15 08:55:46;;;;;;;5.40;1.05;;;19.30;99.90;;;;;;5033070;28;41022;-81
2021/09/15 08:58:16;;;;;;;4.85;0.90;;;19.30;99.90;;;;;;5046649;28;38510;-81
2021/09/15 09:00:45;;;;;;;5.10;0.93;;;19.30;99.90;;;;;;5040512;28;39772;-80
2021/09/15 09:03:12;;;;;;;3.33;0.70;;;19.10;99.90;;;;;;5019517;28;37085;-79
2021/09/15 09:05:38;;;;;;;5.63;0.88;;;19.00;99.90;;;;;;5045986;28;38972;-80
2021/09/15 09:08:24;;;;;;;3.63;0.95;;;19.00;99.90;;;;;;5046211;28;38104;-80
2021/09/15 09:10:54;;;;;;;3.17;1.00;;;19.20;99.90;;;;;;5039616;28;38202;-80
2021/09/15 09:13:20;;;;;;;5.78;1.00;;;19.40;99.90;;;;;;5019694;28;35983;-80
2021/09/15 09:15:46;;;;;;;4.20;1.00;;;19.50;99.90;;;;;;5028434;28;39085;-81
2021/09/15 09:18:12;;;;;;;5.40;1.02;;;19.60;99.90;;;;;;5039356;28;39158;-80
2021/09/15 09:20:39;;;;;;;5.13;1.27;;;19.50;99.90;;;;;;5047137;28;37885;-80
2021/09/15 09:23:16;;;;;;;2.55;0.85;;;19.40;99.90;;;;;;5044842;28;37179;-81
2021/09/15 09:25:51;;;;;;;5.18;0.82;;;19.50;99.90;;;;;;5030869;28;39747;-80
2021/09/15 09:28:28;;;;;;;7.22;1.10;;;19.50;99.90;;;;;;5023376;28;38908;-80
2021/09/15 09:31:12;;;;;;;7.45;1.33;;;19.50;99.90;;;;;;5037809;28;37870;-81
2021/09/15 09:33:38;;;;;;;5.85;1.40;;;19.50;99.90;;;;;;5039469;28;48493;-80
2021/09/15 09:36:09;;;;;;;4.00;1.00;;;19.50;99.90;;;;;;5044104;28;39269;-80
2021/09/15 09:38:43;;;;;;;6.28;1.10;;;19.50;99.90;;;;;;5024728;28;39804;-81
2021/09/15 09:41:10;;;;;;;5.82;0.93;;;19.70;99.90;;;;;;5043960;28;38759;-80
2021/09/15 09:43:57;;;;;;;2.97;0.93;;;19.90;99.90;;;;;;5042529;28;37026;-81
2021/09/15 09:46:34;;;;;;;4.15;1.15;;;19.90;99.90;;;;;;5027956;28;39269;-80
2021/09/15 09:49:02;;;;;;;2.92;0.82;;;20.00;99.90;;;;;;5041001;28;39007;-81
2021/09/15 09:51:39;;;;;;;4.68;1.23;;;19.90;99.90;;;;;;5041650;28;48368;-81
2021/09/15 09:54:29;;;;;;;3.70;1.02;;;19.90;99.90;;;;;;5037189;28;37129;-80
2021/09/15 09:56:57;;;;;;;4.72;1.00;;;19.90;99.90;;;;;;5042894;28;38957;-81
2021/09/15 09:59:27;;;;;;;5.18;1.17;;;19.90;99.90;;;;;;5045631;28;38626;-81
2021/09/15 10:01:59;;;;;;;3.83;1.50;;;19.90;99.90;;;;;;5027920;28;38884;-81
2021/09/15 10:04:28;;;;;;;4.90;2.03;;;19.90;99.90;;;;;;5046321;28;36918;-81
2021/09/15 10:06:55;;;;;;;5.03;1.63;;;19.90;99.90;;;;;;5025928;28;40748;-81
2021/09/15 10:09:23;;;;;;;7.78;2.30;;;20.20;99.90;;;;;;5040200;28;38595;-81
2021/09/15 10:11:49;;;;;;;7.50;3.30;;;20.30;99.90;;;;;;5014610;28;37270;-80
2021/09/15 10:14:17;;;;;;;8.15;3.10;;;20.20;99.90;;;;;;5046507;28;37897;-78
2021/09/15 10:16:55;;;;;;;8.32;2.70;;;20.30;99.90;;;;;;5035916;28;39267;-77
2021/09/15 10:19:28;;;;;;;5.72;2.25;;;20.30;99.90;;;;;;5043426;28;37613;-77
2021/09/15 10:22:00;;;;;;;8.73;2.60;;;20.40;99.90;;;;;;5038280;28;37943;-79
2021/09/15 10:24:48;;;;;;;6.43;2.70;;;20.60;99.90;;;;;;5039572;28;38295;-79
2021/09/15 10:27:16;;;;;;;8.77;3.30;;;20.70;99.90;;;;;;5042668;28;39855;-79
2021/09/15 10:29:43;;;;;;;5.90;2.83;;;20.70;99.90;;;;;;5047800;28;39131;-79
2021/09/15 10:32:11;;;;;;;7.07;3.45;;;20.60;99.90;;;;;;5040920;28;39218;-79
2021/09/15 10:34:40;;;;;;;9.45;2.83;;;20.60;99.90;;;;;;5041034;28;36353;-79
2021/09/15 10:37:09;;;;;;;11.38;4.20;;;20.60;99.90;;;;;;5025658;28;38999;-79
2021/09/15 10:39:55;;;;;;;7.55;3.78;;;20.50;99.90;;;;;;5026648;28;38981;-79
2021/09/15 10:42:47;;;;;;;12.27;5.03;;;20.50;99.90;;;;;;5039458;28;38888;-79
2021/09/15 10:45:14;;;;;;;11.45;5.32;;;20.30;99.90;;;;;;5023242;28;36960;-79
2021/09/15 10:47:58;;;;;;;9.38;4.63;;;20.40;99.90;;;;;;5045342;28;39447;-79
2021/09/15 10:50:27;;;;;;;9.77;4.43;;;20.60;99.90;;;;;;5045024;28;38220;-78
2021/09/15 10:53:14;;;;;;;5.78;2.97;;;20.80;99.90;;;;;;5041829;28;37670;-80
2021/09/15 10:55:51;;;;;;;5.63;3.08;;;20.90;99.90;;;;;;5039830;28;48872;-79
2021/09/15 10:58:17;;;;;;;6.10;2.90;;;21.00;99.90;;;;;;5040455;28;38741;-79
2021/09/15 11:00:52;;;;;;;5.38;2.90;;;21.30;99.90;;;;;;5026062;28;38168;-80
2021/09/15 11:03:50;;;;;;;5.68;2.80;;;21.70;99.90;;;;;;5029177;28;38273;-81
2021/09/15 11:06:17;;;;;;;6.20;3.60;;;21.80;99.90;;;;;;5023523;28;36920;-81
2021/09/15 11:08:49;;;;;;;6.07;3.00;;;21.60;99.90;;;;;;5028557;28;39210;-80
2021/09/15 11:11:27;;;;;;;4.60;2.63;;;21.50;99.90;;;;;;5025967;28;37287;-79
2021/09/15 11:13:56;;;;;;;5.93;2.88;;;21.30;99.90;;;;;;5027489;28;37388;-80
2021/09/15 11:16:39;;;;;;;5.32;3.70;;;21.00;99.90;;;;;;5047386;28;37256;-80
2021/09/15 11:19:10;;;;;;;8.00;4.05;;;20.70;99.90;;;;;;5039471;28;39093;-79
2021/09/15 11:21:48;;;;;;;8.23;4.70;;;20.70;99.90;;;;;;5038702;28;38659;-80
2021/09/15 11:24:20;;;;;;;5.63;3.65;;;20.90;99.90;;;;;;5020972;28;37985;-80
2021/09/15 11:26:58;;;;;;;4.93;3.95;;;20.90;99.90;;;;;;5023128;28;35741;-79
2021/09/15 11:29:42;;;;;;;5.20;3.95;;;20.80;99.90;;;;;;5018661;28;37351;-80
2021/09/15 11:32:15;;;;;;;6.10;4.07;;;20.90;99.90;;;;;;5035865;28;38537;-80
2021/09/15 11:34:47;;;;;;;10.02;5.85;;;21.00;99.90;;;;;;5022705;28;39290;-80
2021/09/15 11:37:32;;;;;;;;;;;20.90;99.90;;;;;;5023233;28;39225;-79
2021/09/15 11:39:59;;;;;;;5.53;4.38;;;21.00;99.90;;;;;;5042244;28;40725;-80
2021/09/15 11:42:28;;;;;;;5.18;4.15;;;21.10;99.90;;;;;;5022732;28;37846;-79
2021/09/15 11:44:54;;;;;;;8.13;3.92;;;21.10;99.90;;;;;;5042036;28;38900;-80
2021/09/15 11:47:27;;;;;;;4.40;3.80;;;21.20;99.90;;;;;;5024069;28;37792;-79
2021/09/15 11:49:53;;;;;;;5.63;3.50;;;21.40;99.90;;;;;;5043829;28;38728;-79
2021/09/15 11:52:20;;;;;;;6.25;4.10;;;21.40;99.90;;;;;;5024949;28;37159;-79
2021/09/15 11:54:50;;;;;;;6.60;3.63;;;21.20;99.90;;;;;;5025782;28;37790;-79
2021/09/15 11:57:18;;;;;;;6.35;4.03;;;21.20;99.90;;;;;;5024932;28;36260;-80
2021/09/15 11:59:44;;;;;;;4.43;3.60;;;21.00;99.90;;;;;;5027832;28;38736;-80
2021/09/15 12:02:12;;;;;;;5.25;3.22;;;21.00;99.90;;;;;;5021387;28;37482;-80
2021/09/15 12:04:44;;;;;;;4.28;3.72;;;21.00;99.90;;;;;;5032081;28;37809;-79
2021/09/15 12:07:13;;;;;;;7.55;3.80;;;21.10;99.90;;;;;;5039414;28;37111;-79
2021/09/15 12:09:41;;;;;;;6.82;3.40;;;21.20;99.90;;;;;;5042690;28;38836;-80
2021/09/15 12:12:09;;;;;;;5.38;3.90;;;21.10;99.90;;;;;;5021449;28;37239;-79
2021/09/15 12:14:35;;;;;;;6.72;4.53;;;20.90;99.90;;;;;;5027094;28;37528;-79
2021/09/15 12:17:04;;;;;;;5.43;4.80;;;20.80;99.90;;;;;;5038637;28;38108;-78
2021/09/15 12:19:31;;;;;;;10.15;6.18;;;20.70;99.90;;;;;;5047256;28;38912;-79
2021/09/15 12:21:57;;;;;;;8.25;6.10;;;20.60;99.90;;;;;;5043525;28;38540;-79
2021/09/15 12:24:25;;;;;;;13.32;7.68;;;20.60;99.90;;;;;;5032067;28;39673;-81
2021/09/15 12:26:52;;;;;;;12.27;9.40;;;20.30;99.90;;;;;;5031200;28;36579;-79
2021/09/15 12:29:20;;;;;;;13.43;10.02;;;20.10;99.90;;;;;;5028850;28;39131;-79
2021/09/15 12:31:52;;;;;;;15.02;9.65;;;20.10;99.90;;;;;;5045445;28;38447;-79
2021/09/15 12:34:33;;;;;;;15.52;11.13;;;19.90;99.90;;;;;;5029332;28;36971;-80
2021/09/15 12:37:18;;;;;;;15.02;10.73;;;19.70;99.90;;;;;;5028667;28;36710;-80
2021/09/15 12:39:48;;;;;;;15.63;10.38;;;19.70;99.90;;;;;;5030177;28;47383;-79
2021/09/15 12:42:28;;;;;;;13.45;6.70;;;19.60;99.90;;;;;;5046163;28;38783;-79
2021/09/15 12:45:13;;;;;;;10.93;4.10;;;19.60;99.90;;;;;;5049899;28;37490;-80